Time;durP1;ratioP1;P1;durP2;ratioP2;P2;SDS_P1;SDS_P2;PMS_P1;PMS_P2;Temp;Humidity;BMP_temperature;BMP_pressure;BME280_temperature;BME280_humidity;BME280_pressure;Samples;Min_cycle;Max_cycle;Signal;HPM_P1;HPM_P2
2021/12/30 00:02:03;;;;;;;51.83;7.18;;;;;;;9.14;100.00;101135.34;5076359;28;20032;-78
2021/12/30 00:04:28;;;;;;;27.52;5.18;;;;;;;9.15;100.00;101145.78;5098719;28;20048;-78
2021/12/30 00:06:54;;;;;;;27.77;5.25;;;;;;;9.16;100.00;101139.63;5080834;28;20035;-78
2021/12/30 00:09:20;;;;;;;29.10;6.00;;;;;;;9.19;100.00;101143.91;5097703;28;20054;-78
2021/12/30 00:11:46;;;;;;;31.98;6.32;;;;;;;9.23;100.00;101129.84;5081755;28;20050;-78
2021/12/30 00:14:11;;;;;;;36.15;6.85;;;;;;;9.25;100.00;101135.88;5063548;28;20095;-78
2021/12/30 00:16:37;;;;;;;32.17;5.68;;;;;;;9.27;100.00;101138.47;5075867;28;20039;-78
2021/12/30 00:19:03;;;;;;;37.47;7.43;;;;;;;9.28;100.00;101148.00;5064421;28;20030;-78
2021/12/30 00:21:28;;;;;;;23.52;5.32;;;;;;;9.29;100.00;101140.09;5082833;28;20242;-78
2021/12/30 00:23:54;;;;;;;26.63;5.85;;;;;;;9.30;100.00;101147.06;5067789;28;20028;-78
2021/12/30 00:26:19;;;;;;;35.83;8.15;;;;;;;9.34;100.00;101137.38;5068133;28;20027;-78
2021/12/30 00:28:45;;;;;;;39.67;7.47;;;;;;;9.34;100.00;101137.38;5084831;28;20050;-78
2021/12/30 00:31:10;;;;;;;31.40;7.82;;;;;;;9.36;100.00;101143.41;5084864;28;20044;-78
2021/12/30 00:33:36;;;;;;;26.30;6.32;;;;;;;9.37;100.00;101143.34;5084730;28;20047;-77
2021/12/30 00:36:06;;;;;;;31.13;7.75;;;;;;;9.39;100.00;101144.16;5061327;28;20074;-77
2021/12/30 00:38:32;;;;;;;24.50;6.38;;;;;;;9.40;100.00;101143.28;5064855;28;20043;-77
2021/12/30 00:40:58;;;;;;;29.48;8.27;;;;;;;9.42;100.00;101140.59;5047902;28;20024;-77
2021/12/30 00:43:23;;;;;;;36.70;8.90;;;;;;;9.43;100.00;101144.91;5064601;28;20276;-77
2021/12/30 00:45:49;;;;;;;35.28;9.18;;;;;;;9.45;100.00;101150.97;5064627;28;20040;-77
2021/12/30 00:48:14;;;;;;;32.17;7.90;;;;;;;9.47;100.00;101150.91;5064390;28;20354;-77
2021/12/30 00:50:40;;;;;;;24.27;6.85;;;;;;;9.49;100.00;101154.34;5082431;28;20040;-77
2021/12/30 00:53:06;;;;;;;26.17;7.55;;;;;;;9.51;100.00;101157.75;5064105;28;20040;-77
2021/12/30 00:55:31;;;;;;;42.50;13.50;;;;;;;9.51;100.00;101155.97;5082322;28;20040;-77
2021/12/30 00:57:56;;;;;;;30.80;12.25;;;;;;;9.52;100.00;101157.72;5081881;28;20242;-78
2021/12/30 01:00:22;;;;;;;37.28;14.10;;;;;;;9.56;100.00;101159.31;5082420;28;20086;-77
2021/12/30 01:02:47;;;;;;;41.50;16.23;;;;;;;9.57;100.00;101162.81;5089445;28;20040;-78
2021/12/30 01:05:13;;;;;;;48.95;16.13;;;;;;;9.58;100.00;101156.66;5102394;28;20091;-78
2021/12/30 01:07:39;;;;;;;35.28;14.30;;;;;;;9.59;100.00;101140.06;5084493;28;20081;-78
2021/12/30 01:10:05;;;;;;;32.47;12.60;;;;;;;9.61;100.00;101169.66;5083284;28;20149;-78
2021/12/30 01:12:31;;;;;;;39.60;11.32;;;;;;;9.63;100.00;101140.84;5083829;28;20035;-77
2021/12/30 01:14:56;;;;;;;25.83;9.65;;;;;;;9.64;100.00;101151.25;5083328;28;20238;-77
2021/12/30 01:17:43;;;;;;;22.85;8.90;;;;;;;9.65;100.00;101139.03;5101809;28;20020;-78
2021/12/30 01:20:09;;;;;;;22.23;8.35;;;;;;;9.66;100.00;101131.13;5085738;28;20374;-78
2021/12/30 01:22:35;;;;;;;32.05;10.57;;;;;;;9.66;100.00;101132.88;5083828;28;20100;-77
2021/12/30 01:25:00;;;;;;;26.30;8.63;;;;;;;9.67;100.00;101140.69;5057729;28;20100;-77
2021/12/30 01:27:26;;;;;;;28.23;7.82;;;;;;;9.69;100.00;101151.94;5081571;28;20208;-77
2021/12/30 01:29:51;;;;;;;22.77;8.57;;;;;;;9.72;100.00;101157.06;5063453;28;20041;-77
2021/12/30 01:32:17;;;;;;;24.85;8.77;;;;;;;9.73;100.00;101157.94;5063020;28;20048;-77
2021/12/30 01:34:42;;;;;;;27.75;8.90;;;;;;;9.77;100.00;101159.56;5081364;28;20044;-77
2021/12/30 01:37:08;;;;;;;24.48;7.57;;;;;;;9.78;100.00;101169.09;5090045;28;20030;-77
2021/12/30 01:39:38;;;;;;;22.58;8.02;;;;;;;9.84;100.00;101173.28;5083575;28;20082;-77
2021/12/30 01:42:04;;;;;;;27.85;8.88;;;;;;;9.86;100.00;101180.19;5066702;28;20369;-78
2021/12/30 01:44:29;;;;;;;25.77;7.20;;;;;;;9.88;100.00;101188.84;5101927;28;20256;-77
2021/12/30 01:46:54;;;;;;;29.30;8.55;;;;;;;9.91;100.00;101186.09;5065319;28;20043;-78
2021/12/30 01:49:21;;;;;;;21.27;7.68;;;;;;;9.93;100.00;101183.44;5066581;28;20075;-78
2021/12/30 01:51:47;;;;;;;24.08;8.05;;;;;;;9.94;100.00;101188.63;5083725;28;20032;-77
2021/12/30 01:54:12;;;;;;;22.92;7.43;;;;;;;9.94;100.00;101199.09;5082984;28;20121;-78
2021/12/30 01:56:38;;;;;;;22.50;7.72;;;;;;;9.96;100.00;101199.06;5066532;28;20276;-77
2021/12/30 01:59:04;;;;;;;14.88;6.32;;;;;;;9.97;100.00;101198.16;5082908;28;20011;-77
2021/12/30 02:04:52;;;;;;;22.27;7.03;;;;;;;9.97;100.00;101195.53;5055526;22;20267;-90
2021/12/30 02:07:23;;;;;;;20.98;8.55;;;;;;;9.96;100.00;101186.81;5066075;28;20374;-91
2021/12/30 02:09:50;;;;;;;24.67;9.80;;;;;;;10.01;100.00;101191.91;5083037;28;20102;-92
2021/12/30 02:12:16;;;;;;;26.00;8.90;;;;;;;10.02;100.00;101188.38;5050893;28;20031;-91
2021/12/30 02:14:42;;;;;;;18.27;9.15;;;;;;;10.02;100.00;101180.53;5050414;28;20357;-90
2021/12/30 02:17:08;;;;;;;15.93;8.57;;;;;;;10.02;100.00;101188.38;5066746;28;20339;-91
2021/12/30 02:19:36;;;;;;;17.77;8.85;;;;;;;10.03;100.00;101189.25;5067641;28;20020;-91
2021/12/30 02:22:02;;;;;;;19.05;7.63;;;;;;;10.01;100.00;101183.22;5066693;28;20265;-91
2021/12/30 02:24:31;;;;;;;16.75;7.40;;;;;;;10.06;100.00;101194.38;5066979;28;20339;-91
2021/12/30 02:26:57;;;;;;;26.73;8.32;;;;;;;10.08;100.00;101189.97;5065657;28;20220;-91
2021/12/30 02:29:23;;;;;;;16.77;7.68;;;;;;;10.08;100.00;101190.81;5049459;28;20039;-91
2021/12/30 02:31:50;;;;;;;18.77;8.52;;;;;;;10.09;100.00;101194.28;5065900;28;20097;-91
2021/12/30 02:34:16;;;;;;;14.65;6.75;;;;;;;10.11;100.00;101202.91;5050096;28;20074;-91
2021/12/30 02:36:44;;;;;;;12.13;6.70;;;;;;;10.12;100.00;101217.72;5078464;28;20033;-91
2021/12/30 02:39:13;;;;;;;15.48;6.40;;;;;;;10.12;100.00;101213.34;5063206;28;20123;-91
2021/12/30 02:41:39;;;;;;;20.23;7.78;;;;;;;10.19;100.00;101216.63;5047365;28;20036;-91
2021/12/30 02:44:16;;;;;;;16.00;7.28;;;;;;;10.24;100.00;101240.00;5046335;28;20251;-91
2021/12/30 02:46:43;;;;;;;19.15;8.65;;;;;;;10.27;100.00;101229.44;5080306;28;20046;-91
2021/12/30 02:49:09;;;;;;;23.17;9.27;;;;;;;10.29;100.00;101232.88;5062701;28;20052;-91
2021/12/30 02:51:37;;;;;;;20.80;10.45;;;;;;;10.34;100.00;101226.59;5046627;28;20025;-92
2021/12/30 02:54:07;;;;;;;24.40;9.55;;;;;;;10.38;100.00;101229.97;5079678;28;20053;-91
2021/12/30 02:56:47;;;;;;;18.35;8.25;;;;;;;10.41;100.00;101231.66;5064535;28;20074;-91
2021/12/30 02:59:14;;;;;;;24.42;9.45;;;;;;;10.44;100.00;101239.38;5047717;28;20037;-93
2021/12/30 03:01:40;;;;;;;18.98;8.15;;;;;;;10.44;100.00;101227.16;5058793;28;20024;-91
2021/12/30 03:04:13;;;;;;;17.40;7.63;;;;;;;10.47;100.00;101228.81;5063298;28;20028;-91
2021/12/30 03:06:41;;;;;;;22.98;7.53;;;;;;;10.51;100.00;101226.06;5074963;28;20062;-92
2021/12/30 03:09:11;;;;;;;18.60;7.60;;;;;;;10.53;100.00;101210.25;5046977;28;20048;-91
2021/12/30 03:11:37;;;;;;;16.80;7.93;;;;;;;10.54;100.00;101215.44;5065429;28;20036;-91
2021/12/30 03:14:07;;;;;;;17.42;8.30;;;;;;;10.57;100.00;101207.50;5064666;28;20043;-92
2021/12/30 03:16:53;;;;;;;28.80;9.23;;;;;;;10.59;100.00;101219.66;5080754;28;20247;-92
2021/12/30 03:19:23;;;;;;;20.73;9.35;;;;;;;10.57;100.00;101210.13;5080093;28;20029;-91
2021/12/30 03:21:49;;;;;;;;;;;;;;;10.60;100.00;101216.16;5062801;28;20239;-92
2021/12/30 03:24:26;;;;;;;24.08;8.95;;;;;;;10.57;100.00;101211.88;5091208;28;19938;-91
2021/12/30 03:26:53;;;;;;;21.33;10.55;;;;;;;10.56;100.00;101205.78;5066186;28;20043;-92
2021/12/30 03:29:21;;;;;;;22.50;10.10;;;;;;;10.54;100.00;101212.00;5066235;28;20040;-90
2021/12/30 03:31:49;;;;;;;28.67;11.10;;;;;;;10.56;100.00;101204.94;5051673;28;20103;-93
2021/12/30 03:34:33;;;;;;;24.95;10.45;;;;;;;10.60;100.00;101210.91;5082905;28;20128;-91
2021/12/30 03:36:59;;;;;;;27.80;11.27;;;;;;;10.59;100.00;101204.84;5060110;28;20213;-91
2021/12/30 03:39:26;;;;;;;31.20;13.02;;;;;;;10.59;100.00;101211.81;5046113;28;20035;-91
2021/12/30 03:42:07;;;;;;;25.58;11.30;;;;;;;10.56;100.00;101236.34;5100019;28;20455;-91
2021/12/30 03:44:49;;;;;;;17.38;10.32;;;;;;;10.58;100.00;101224.06;5069651;28;20038;-92
2021/12/30 03:47:18;;;;;;;28.52;11.75;;;;;;;10.58;100.00;101224.06;5100669;28;20096;-91
2021/12/30 03:49:53;;;;;;;28.83;12.57;;;;;;;10.61;100.00;101246.69;5064130;28;20094;-91
2021/12/30 03:52:29;;;;;;;22.35;11.82;;;;;;;10.62;100.00;101235.28;5047321;28;20036;-92
2021/12/30 03:54:56;;;;;;;28.83;11.38;;;;;;;10.63;100.00;101237.00;5063251;28;20032;-92
2021/12/30 03:57:32;;;;;;;24.98;11.27;;;;;;;10.62;100.00;101236.13;5063604;28;20255;-91
2021/12/30 04:00:19;;;;;;;25.25;10.95;;;;;;;10.64;100.00;101231.72;5072138;28;20095;-92
2021/12/30 04:02:50;;;;;;;26.63;10.43;;;;;;;10.62;100.00;101232.66;5065383;28;20088;-92
2021/12/30 04:05:39;;;;;;;26.92;10.55;;;;;;;10.60;100.00;101226.63;5080417;28;20043;-92
2021/12/30 04:08:07;;;;;;;27.27;10.75;;;;;;;10.57;100.00;101219.75;5099134;28;20040;-91
2021/12/30 04:10:55;;;;;;;22.10;9.35;;;;;;;10.57;100.00;101217.97;5070456;28;20048;-91
2021/12/30 04:13:23;;;;;;;23.30;9.85;;;;;;;10.53;100.00;101221.63;5064928;28;20039;-91
2021/12/30 04:15:52;;;;;;;21.25;9.43;;;;;;;10.56;100.00;101228.50;5032768;28;20055;-92
2021/12/30 04:18:51;;;;;;;25.10;8.10;;;;;;;10.57;100.00;101238.94;5083698;28;20060;-92
2021/12/30 04:22:01;;;;;;;28.90;8.32;;;;;;;10.60;100.00;101237.09;5099687;28;20035;-92
2021/12/30 04:24:49;;;;;;;29.60;9.68;;;;;;;10.60;100.00;101226.63;5083478;28;20047;-92
2021/12/30 04:27:17;;;;;;;31.88;10.57;;;;;;;10.63;100.00;101229.16;5092480;28;20040;-92
2021/12/30 04:29:47;;;;;;;23.17;9.87;;;;;;;10.60;100.00;101245.81;5048841;28;20028;-92
2021/12/30 04:32:17;;;;;;;23.13;9.13;;;;;;;10.62;100.00;101248.38;5049367;28;20039;-92
2021/12/30 04:34:48;;;;;;;32.55;10.00;;;;;;;10.60;100.00;101243.19;5065034;28;20277;-91
2021/12/30 04:37:14;;;;;;;30.35;9.48;;;;;;;10.63;100.00;101250.09;5072688;28;20049;-93
2021/12/30 04:39:43;;;;;;;27.27;8.20;;;;;;;10.62;100.00;101244.00;5042969;28;20066;-92
2021/12/30 04:42:10;;;;;;;23.85;9.07;;;;;;;10.61;100.00;101236.22;5061965;28;20255;-91
2021/12/30 04:44:56;;;;;;;32.28;8.43;;;;;;;10.62;100.00;101230.91;5064758;28;20044;-91
2021/12/30 04:47:24;;;;;;;24.17;6.82;;;;;;;10.60;100.00;101237.94;5061500;28;20066;-91
2021/12/30 04:49:52;;;;;;;21.27;7.32;;;;;;;10.60;100.00;101243.19;5039931;28;20062;-92
2021/12/30 04:52:18;;;;;;;31.08;7.05;;;;;;;10.60;100.00;101237.94;5048673;28;20078;-91
2021/12/30 04:54:49;;;;;;;13.82;5.43;;;;;;;10.62;100.00;101241.38;5066425;28;20051;-91
2021/12/30 04:57:16;;;;;;;16.55;5.63;;;;;;;10.62;100.00;101238.75;5082417;28;20375;-92
2021/12/30 04:59:42;;;;;;;23.42;5.47;;;;;;;10.63;100.00;101252.72;5049047;28;20124;-92
2021/12/30 05:02:42;;;;;;;14.05;5.25;;;;;;;10.65;100.00;101250.91;5035797;28;20036;-91
2021/12/30 05:05:14;;;;;;;16.38;4.75;;;;;;;10.66;100.00;101244.75;5062163;28;20059;-92
2021/12/30 05:07:49;;;;;;;14.10;5.15;;;;;;;10.68;100.00;101241.19;5079326;28;20049;-92
2021/12/30 05:10:16;;;;;;;12.68;5.43;;;;;;;10.68;100.00;101235.94;5034936;28;20266;-91
2021/12/30 05:12:42;;;;;;;12.20;5.07;;;;;;;10.68;100.00;101242.94;5048338;28;20043;-92
2021/12/30 05:15:09;;;;;;;15.68;6.07;;;;;;;10.67;100.00;101251.72;5053777;28;20029;-91
2021/12/30 05:17:37;;;;;;;17.88;6.93;;;;;;;10.69;100.00;101252.50;5069087;28;20047;-91
2021/12/30 05:20:29;;;;;;;18.17;7.25;;;;;;;10.70;100.00;101243.75;5068330;28;20040;-93
2021/12/30 05:22:56;;;;;;;17.05;6.97;;;;;;;10.71;100.00;101237.59;5068298;28;20089;-93
2021/12/30 05:25:25;;;;;;;19.73;6.80;;;;;;;10.73;100.00;101246.25;5086644;28;20328;-93
2021/12/30 05:27:51;;;;;;;18.73;6.13;;;;;;;10.74;100.00;101242.72;5067041;28;20040;-91
2021/12/30 05:30:19;;;;;;;14.77;6.43;;;;;;;10.75;100.00;101268.00;5051967;28;20027;-93
2021/12/30 05:32:53;;;;;;;11.15;5.28;;;;;;;10.76;100.00;101254.84;5051437;28;20055;-91
2021/12/30 05:35:28;;;;;;;15.30;5.22;;;;;;;10.77;100.00;101255.72;5086269;28;20355;-93
2021/12/30 05:38:25;;;;;;;19.98;4.85;;;;;;;10.78;100.00;101252.19;5101677;28;20282;-94
2021/12/30 05:41:05;;;;;;;10.32;5.43;;;;;;;10.82;100.00;101245.06;5100102;28;20212;-92
2021/12/30 05:43:45;;;;;;;;;;;;;;;10.83;100.00;101245.03;5070752;28;20106;-93
2021/12/30 05:46:52;;;;;;;13.38;4.63;;;;;;;10.84;100.00;101240.63;5097265;28;19935;-92
2021/12/30 05:49:21;;;;;;;9.60;4.63;;;;;;;10.84;100.00;101254.59;5067923;28;20023;-92
2021/12/30 05:51:51;;;;;;;10.25;4.38;;;;;;;10.86;100.00;101258.03;5085562;28;20043;-92
2021/12/30 05:54:18;;;;;;;12.68;4.40;;;;;;;10.87;100.00;101266.72;5054034;28;20085;-92
2021/12/30 05:57:13;;;;;;;17.63;4.95;;;;;;;10.90;100.00;101272.72;5086578;28;20016;-93
2021/12/30 06:00:01;;;;;;;14.65;4.85;;;;;;;10.92;100.00;101272.66;5083513;28;20047;-92
2021/12/30 06:03:02;;;;;;;12.75;5.63;;;;;;;10.92;100.00;101275.28;5086626;28;20052;-93
2021/12/30 06:05:57;;;;;;;16.63;6.85;;;;;;;10.95;100.00;101283.91;5084066;28;20051;-93
2021/12/30 06:08:50;;;;;;;14.10;5.78;;;;;;;10.95;100.00;101302.25;5069203;28;20271;-93
2021/12/30 06:11:21;;;;;;;11.20;5.30;;;;;;;10.94;100.00;101289.19;5065825;28;20048;-92
2021/12/30 06:14:00;;;;;;;8.65;5.07;;;;;;;10.95;100.00;101296.13;5047147;28;20029;-93
2021/12/30 06:16:47;;;;;;;;;;;;;;;10.96;100.00;101305.72;5025208;28;20275;-92
2021/12/30 06:19:36;;;;;;;9.70;4.68;;;;;;;10.95;100.00;101299.63;5044820;28;19913;-93
2021/12/30 06:22:04;;;;;;;6.80;4.32;;;;;;;10.94;100.00;101303.16;5043998;28;20037;-92
2021/12/30 06:24:57;;;;;;;11.70;5.18;;;;;;;10.94;100.00;101294.44;5044095;28;20091;-93
2021/12/30 06:27:31;;;;;;;10.48;4.97;;;;;;;10.94;100.00;101300.53;5038894;28;20037;-92
2021/12/30 06:30:27;;;;;;;10.15;5.28;;;;;;;10.95;100.00;101310.09;5036748;28;20087;-93
2021/12/30 06:33:19;;;;;;;7.80;4.25;;;;;;;10.96;100.00;101300.47;5062755;28;20033;-93
2021/12/30 06:35:59;;;;;;;5.55;4.15;;;;;;;10.94;100.00;101300.53;5075544;28;20044;-91
2021/12/30 06:38:40;;;;;;;6.68;4.18;;;;;;;10.90;100.00;101284.97;5081865;28;20028;-92
2021/12/30 06:41:24;;;;;;;4.30;3.55;;;;;;;10.90;100.00;101298.94;5078177;28;20040;-92
2021/12/30 06:44:00;;;;;;;5.85;3.70;;;;;;;10.89;100.00;101305.06;5081184;28;20020;-92
2021/12/30 06:46:56;;;;;;;4.13;3.20;;;;;;;10.89;100.00;101317.31;5065158;28;20115;-93
2021/12/30 06:50:20;;;;;;;6.20;3.50;;;;;;;10.88;100.00;101324.31;5049797;28;20554;-92
2021/12/30 06:53:04;;;;;;;9.40;4.43;;;;;;;10.89;100.00;101356.63;5096417;22;20067;-77
2021/12/30 06:55:29;;;;;;;10.73;5.20;;;;;;;10.91;100.00;101339.06;5098983;28;20388;-76
2021/12/30 06:57:55;;;;;;;13.55;5.75;;;;;;;10.93;100.00;101329.41;5097379;28;20050;-77
2021/12/30 07:00:21;;;;;;;14.48;5.65;;;;;;;10.93;100.00;101352.97;5062753;28;20192;-77
2021/12/30 07:02:46;;;;;;;19.00;6.00;;;;;;;10.93;100.00;101351.25;5080456;28;20036;-77
2021/12/30 07:05:12;;;;;;;13.77;5.53;;;;;;;10.94;100.00;101357.31;5047822;28;20228;-78
2021/12/30 07:07:38;;;;;;;19.08;5.97;;;;;;;10.94;100.00;101363.41;5040930;28;20047;-77
2021/12/30 07:10:04;;;;;;;20.70;6.50;;;;;;;10.94;100.00;101350.31;5055763;28;20093;-77
2021/12/30 07:12:29;;;;;;;25.55;8.20;;;;;;;10.93;100.00;101343.38;5078601;28;20070;-77
2021/12/30 07:14:56;;;;;;;21.60;7.70;;;;;;;10.93;100.00;101343.38;5077299;28;20036;-77
2021/12/30 07:17:21;;;;;;;28.08;8.27;;;;;;;10.93;100.00;101340.75;5078191;28;20040;-77
2021/12/30 07:19:46;;;;;;;25.70;7.75;;;;;;;10.90;100.00;101346.09;5061236;28;20028;-77
2021/12/30 07:22:12;;;;;;;28.85;8.63;;;;;;;10.90;100.00;101329.53;5059939;28;20028;-77
2021/12/30 07:24:37;;;;;;;28.35;9.90;;;;;;;10.89;100.00;101344.38;5060755;28;20290;-77
2021/12/30 07:27:03;;;;;;;27.15;9.77;;;;;;;10.88;100.00;101355.78;5043919;28;20392;-77
2021/12/30 07:29:28;;;;;;;18.73;8.02;;;;;;;10.86;100.00;101354.97;5060482;28;20036;-77
2021/12/30 07:31:54;;;;;;;27.17;8.43;;;;;;;10.88;100.00;101360.16;5058851;28;20047;-76
2021/12/30 07:34:19;;;;;;;23.60;7.28;;;;;;;10.85;100.00;101363.72;5056909;28;20040;-76
2021/12/30 07:36:44;;;;;;;32.42;8.30;;;;;;;10.86;100.00;101375.06;5060694;28;20396;-77
2021/12/30 07:39:10;;;;;;;26.70;7.45;;;;;;;10.84;100.00;101377.75;5061263;28;20045;-77
2021/12/30 07:41:35;;;;;;;26.17;8.80;;;;;;;10.86;100.00;101382.91;5047177;28;20032;-77
2021/12/30 07:44:01;;;;;;;24.10;8.38;;;;;;;10.86;100.00;101391.66;5074869;28;20331;-77
2021/12/30 07:46:26;;;;;;;27.58;9.15;;;;;;;10.86;100.00;101407.38;5059620;28;20099;-77
2021/12/30 07:48:51;;;;;;;30.77;7.53;;;;;;;10.88;100.00;101392.47;5065920;28;20391;-77
2021/12/30 07:51:17;;;;;;;28.40;6.72;;;;;;;10.89;100.00;101411.66;5060469;28;20036;-77
2021/12/30 07:53:42;;;;;;;26.55;6.68;;;;;;;10.89;100.00;101407.25;5060262;28;20338;-77
2021/12/30 07:56:08;;;;;;;22.30;6.20;;;;;;;10.90;100.00;101421.25;5078199;28;20048;-76
2021/12/30 07:58:33;;;;;;;27.20;5.40;;;;;;;10.90;100.00;101419.47;5041508;28;20056;-77
2021/12/30 08:00:59;;;;;;;28.42;5.10;;;;;;;10.91;100.00;101421.19;5060963;28;20033;-76
2021/12/30 08:03:24;;;;;;;33.75;5.80;;;;;;;10.91;100.00;101421.19;5060809;28;20051;-77
2021/12/30 08:05:50;;;;;;;28.58;5.82;;;;;;;10.92;100.00;101424.66;5061273;28;20048;-77
2021/12/30 08:08:15;;;;;;;28.67;5.47;;;;;;;10.92;100.00;101433.38;5073405;28;20089;-78
2021/12/30 08:10:42;;;;;;;33.72;5.53;;;;;;;10.93;100.00;101408.00;5061499;28;20068;-77
2021/12/30 08:13:07;;;;;;;42.58;6.00;;;;;;;10.92;100.00;101404.53;5054980;28;20225;-77
2021/12/30 08:15:33;;;;;;;32.83;5.65;;;;;;;10.91;100.00;101410.72;5039354;28;20039;-77
2021/12/30 08:17:58;;;;;;;33.80;5.10;;;;;;;10.93;100.00;101426.34;5050085;28;20329;-77
2021/12/30 08:20:24;;;;;;;32.88;7.03;;;;;;;10.92;100.00;101424.66;5055623;28;20040;-77
2021/12/30 08:22:50;;;;;;;37.78;5.97;;;;;;;10.93;100.00;101419.38;5058240;28;20036;-77
2021/12/30 08:25:16;;;;;;;32.17;5.82;;;;;;;10.94;100.00;101426.31;5072099;28;20040;-77
2021/12/30 08:27:41;;;;;;;34.53;5.93;;;;;;;10.95;100.00;101425.41;5021027;28;20055;-77
2021/12/30 08:30:09;;;;;;;40.92;6.25;;;;;;;10.98;100.00;101434.09;5074466;28;20100;-77
2021/12/30 08:32:34;;;;;;;33.13;6.50;;;;;;;10.98;100.00;101444.56;5076640;28;20044;-77
2021/12/30 08:35:00;;;;;;;30.55;5.20;;;;;;;10.99;100.00;101435.78;5069669;28;20396;-77
2021/12/30 08:37:25;;;;;;;42.42;6.68;;;;;;;11.01;100.00;101441.84;5059579;28;20040;-77
2021/12/30 08:39:51;;;;;;;32.08;5.80;;;;;;;11.02;100.00;101435.69;5076719;28;20070;-77
2021/12/30 08:42:24;;;;;;;28.02;6.20;;;;;;;11.01;100.00;101426.13;5065776;28;20047;-77
2021/12/30 08:44:50;;;;;;;36.38;6.55;;;;;;;11.01;100.00;101439.22;5045079;28;20219;-77
2021/12/30 08:47:15;;;;;;;29.60;4.97;;;;;;;11.02;100.00;101454.03;5066058;28;20037;-78
2021/12/30 08:49:44;;;;;;;30.20;5.95;;;;;;;11.02;100.00;101439.16;5079609;28;20043;-77
2021/12/30 08:52:10;;;;;;;32.03;5.63;;;;;;;11.03;100.00;101445.28;5079090;28;20248;-77
2021/12/30 08:54:36;;;;;;;29.77;5.00;;;;;;;11.03;100.00;101445.28;5079381;28;20040;-77
2021/12/30 08:57:03;;;;;;;37.35;5.65;;;;;;;11.04;100.00;101445.22;5060955;28;20055;-77
2021/12/30 08:59:28;;;;;;;34.28;5.80;;;;;;;11.04;100.00;101457.47;5076931;28;20269;-77
2021/12/30 09:01:54;;;;;;;32.75;5.20;;;;;;;11.05;100.00;101439.06;5078195;28;20046;-77
2021/12/30 09:04:19;;;;;;;29.90;5.82;;;;;;;11.09;100.00;101438.03;5040657;28;20039;-77
2021/12/30 09:06:45;;;;;;;25.65;5.47;;;;;;;11.09;100.00;101439.81;5056386;28;20120;-77
2021/12/30 09:09:10;;;;;;;33.67;5.25;;;;;;;11.12;100.00;101455.47;5075537;28;20047;-77
2021/12/30 09:11:36;;;;;;;28.15;5.30;;;;;;;11.14;100.00;101451.00;5060248;28;20342;-77
2021/12/30 09:14:01;;;;;;;26.45;5.47;;;;;;;11.18;100.00;101468.34;5068240;28;20033;-77
2021/12/30 09:16:27;;;;;;;31.75;4.95;;;;;;;11.22;100.00;101456.00;5072686;28;20450;-76
2021/12/30 09:18:52;;;;;;;26.08;5.75;;;;;;;11.24;100.00;101446.31;5056683;28;20204;-77
2021/12/30 09:21:17;;;;;;;32.03;5.38;;;;;;;11.24;100.00;101455.06;5075985;28;20040;-77
2021/12/30 09:23:43;;;;;;;30.42;5.30;;;;;;;11.26;100.00;101462.84;5072133;28;20397;-77
2021/12/30 09:26:08;;;;;;;34.53;5.50;;;;;;;11.26;100.00;101440.13;5075978;28;20050;-77
2021/12/30 09:28:34;;;;;;;29.52;5.00;;;;;;;11.28;100.00;101455.81;5060695;28;20285;-77
2021/12/30 09:30:59;;;;;;;36.70;5.18;;;;;;;11.29;100.00;101468.84;5060328;28;20046;-77
2021/12/30 09:33:25;;;;;;;32.47;4.95;;;;;;;11.31;100.00;101489.78;5056086;28;20036;-76
2021/12/30 09:35:51;;;;;;;43.40;7.30;;;;;;;11.33;100.00;101480.09;5045693;28;20074;-78
2021/12/30 09:38:16;;;;;;;23.40;5.05;;;;;;;11.32;100.00;101463.50;5067558;28;20108;-77
2021/12/30 09:40:42;;;;;;;26.73;4.97;;;;;;;11.32;100.00;101491.50;5056300;28;20223;-77
2021/12/30 09:43:09;;;;;;;25.88;5.32;;;;;;;11.32;100.00;101499.38;5072679;28;20367;-78
2021/12/30 09:45:38;;;;;;;26.58;4.55;;;;;;;11.32;100.00;101505.47;5071938;28;20059;-76
2021/12/30 09:48:05;;;;;;;23.92;4.60;;;;;;;11.32;100.00;101497.59;5061342;28;20345;-77
2021/12/30 09:50:33;;;;;;;27.83;4.28;;;;;;;11.32;100.00;101487.09;5041235;28;20047;-77
2021/12/30 09:52:59;;;;;;;25.05;4.00;;;;;;;11.32;100.00;101486.25;5058653;28;20083;-77
2021/12/30 09:55:25;;;;;;;26.83;4.22;;;;;;;11.31;100.00;101509.00;5071818;28;20032;-77
2021/12/30 09:57:54;;;;;;;24.85;5.60;;;;;;;11.33;100.00;101499.31;5073951;28;20072;-78
2021/12/30 10:00:19;;;;;;;;;;;;;;;11.34;100.00;101489.69;5056831;28;20033;-77
2021/12/30 10:02:45;;;;;;;27.90;4.63;;;;;;;11.34;100.00;101490.53;5059925;28;19987;-76
2021/12/30 10:05:19;;;;;;;21.00;4.05;;;;;;;11.34;100.00;101523.78;5059883;28;20036;-77
2021/12/30 10:07:44;;;;;;;23.17;4.00;;;;;;;11.35;100.00;101515.00;5057819;28;20044;-77
2021/12/30 10:10:40;;;;;;;20.98;3.28;;;;;;;11.37;100.00;101491.34;5072608;28;20040;-77
2021/12/30 10:13:24;;;;;;;20.00;4.50;;;;;;;11.36;99.97;101508.84;5052495;28;20052;-76
2021/12/30 10:15:52;;;;;;;22.42;4.15;;;;;;;11.36;99.87;101516.69;5077019;28;20044;-77
2021/12/30 10:18:18;;;;;;;20.52;3.47;;;;;;;11.37;100.00;101502.69;5053930;28;20045;-77
2021/12/30 10:20:43;;;;;;;19.48;3.80;;;;;;;11.37;99.73;101491.34;5039624;28;20034;-77
2021/12/30 10:23:17;;;;;;;23.95;5.05;;;;;;;11.36;100.00;101480.00;5076636;28;20089;-77
2021/12/30 10:25:47;;;;;;;16.67;3.95;;;;;;;11.35;99.93;101478.28;5042601;28;20024;-76
2021/12/30 10:28:23;;;;;;;20.35;4.20;;;;;;;11.34;99.76;101495.78;5060344;28;20047;-77
2021/12/30 10:30:50;;;;;;;21.23;4.53;;;;;;;11.33;100.00;101494.06;5058021;28;20037;-77
2021/12/30 10:33:18;;;;;;;17.02;3.72;;;;;;;11.32;99.73;101476.63;5059953;28;20043;-77
2021/12/30 10:35:44;;;;;;;16.92;4.20;;;;;;;11.32;99.87;101518.56;5057776;28;20320;-77
2021/12/30 10:38:09;;;;;;;26.17;4.50;;;;;;;11.29;99.96;101505.56;5059754;28;20386;-76
2021/12/30 10:40:36;;;;;;;21.65;5.00;;;;;;;11.29;99.99;101528.31;5058488;28;20361;-77
2021/12/30 10:43:27;;;;;;;16.38;4.20;;;;;;;11.29;99.93;101533.53;5054822;28;20089;-77
2021/12/30 10:46:20;;;;;;;18.33;3.30;;;;;;;11.27;100.00;101501.28;5074823;28;20040;-77
2021/12/30 10:49:05;;;;;;;21.92;3.45;;;;;;;11.26;100.00;101496.94;5076746;28;20620;-77
2021/12/30 10:51:50;;;;;;;19.27;3.47;;;;;;;11.25;100.00;101506.56;5047157;28;20236;-77
2021/12/30 10:54:27;;;;;;;14.73;3.28;;;;;;;11.25;100.00;101524.91;5059029;28;20208;-77
2021/12/30 10:57:05;;;;;;;19.70;3.78;;;;;;;11.24;100.00;101509.22;5076415;28;20105;-77
2021/12/30 10:59:38;;;;;;;15.38;3.38;;;;;;;11.25;100.00;101514.44;5053976;28;20032;-77
2021/12/30 11:02:12;;;;;;;19.88;3.85;;;;;;;11.26;100.00;101521.41;5039151;28;20032;-77
2021/12/30 11:04:39;;;;;;;21.85;4.95;;;;;;;11.27;100.00;101533.59;5069226;28;20048;-77
2021/12/30 11:07:05;;;;;;;15.18;3.72;;;;;;;11.27;100.00;101510.00;5056525;28;20048;-76
2021/12/30 11:09:31;;;;;;;18.30;3.95;;;;;;;11.27;100.00;101519.63;5058029;28;20077;-77
2021/12/30 11:12:00;;;;;;;18.08;3.05;;;;;;;11.29;100.00;101525.69;5056146;28;20359;-77
2021/12/30 11:14:31;;;;;;;19.95;4.13;;;;;;;11.29;100.00;101538.78;5038358;28;20032;-76
2021/12/30 11:17:07;;;;;;;12.48;3.47;;;;;;;11.29;100.00;101520.44;5040497;28;20028;-77
2021/12/30 11:19:43;;;;;;;24.25;5.15;;;;;;;11.30;100.00;101522.16;5042640;28;20024;-77
2021/12/30 11:22:16;;;;;;;18.48;4.80;;;;;;;11.29;100.00;101539.63;5040348;28;20044;-77
2021/12/30 11:24:43;;;;;;;18.48;5.10;;;;;;;11.30;100.00;101554.47;5051654;28;20047;-77
2021/12/30 11:27:10;;;;;;;19.55;4.15;;;;;;;11.32;100.00;101539.56;5045813;28;20049;-77
2021/12/30 11:29:36;;;;;;;23.25;3.95;;;;;;;11.32;100.00;101541.31;5054180;28;20074;-77
2021/12/30 11:32:02;;;;;;;23.83;4.10;;;;;;;11.33;100.00;101541.28;5054680;28;20040;-77